createdAt,value
2023-02-08T00:01:14.793Z,94.51
2023-02-08T00:03:42.998Z,94.44
2023-02-08T00:06:11.057Z,94.94
2023-02-08T00:08:39.007Z,96.24
2023-02-08T00:11:07.825Z,97.07
2023-02-08T00:13:35.593Z,97.10
2023-02-08T00:16:03.205Z,97.30
2023-02-08T00:18:30.419Z,98.12
2023-02-08T00:20:57.843Z,98.17
2023-02-08T00:23:25.850Z,97.69
2023-02-08T00:25:53.186Z,96.65
2023-02-08T00:28:20.984Z,97.10
2023-02-08T00:30:49.456Z,98.88
2023-02-08T00:33:16.669Z,99.18
2023-02-08T00:35:44.189Z,100.00
2023-02-08T00:38:12.572Z,99.72
2023-02-08T00:40:40.243Z,100.00
2023-02-08T00:43:07.566Z,100.00
2023-02-08T00:45:35.729Z,100.00
2023-02-08T00:48:04.962Z,100.00
2023-02-08T00:50:32.738Z,100.00
2023-02-08T00:53:00.329Z,100.00
2023-02-08T00:55:28.208Z,100.00
2023-02-08T00:57:55.990Z,100.00
2023-02-08T01:00:23.395Z,100.00
2023-02-08T01:02:50.843Z,100.00
2023-02-08T01:05:18.720Z,100.00
2023-02-08T01:07:46.231Z,100.00
2023-02-08T01:10:13.545Z,100.00
2023-02-08T01:12:41.627Z,100.00
2023-02-08T01:15:10.194Z,100.00
2023-02-08T01:17:39.811Z,99.88
2023-02-08T01:20:07.976Z,99.79
2023-02-08T01:22:36.820Z,99.31
2023-02-08T01:25:05.293Z,98.92
2023-02-08T01:27:33.034Z,99.63
2023-02-08T01:30:00.497Z,100.00
2023-02-08T01:32:28.653Z,100.00
2023-02-08T01:34:56.380Z,100.00
2023-02-08T01:37:24.107Z,100.00
2023-02-08T01:39:51.391Z,100.00
2023-02-08T01:42:20.957Z,100.00
2023-02-08T01:45:16.653Z,100.00
2023-02-08T01:47:48.836Z,100.00
2023-02-08T01:50:19.682Z,100.00
2023-02-08T01:52:51.492Z,100.00
2023-02-08T01:55:30.331Z,100.00
2023-02-08T01:58:01.886Z,100.00
2023-02-08T02:00:32.049Z,100.00
2023-02-08T02:03:03.530Z,100.00
2023-02-08T02:05:42.854Z,100.00
2023-02-08T02:08:12.411Z,100.00
2023-02-08T02:10:42.772Z,100.00
2023-02-08T02:13:15.217Z,100.00
2023-02-08T02:15:46.056Z,100.00
2023-02-08T02:18:20.165Z,100.00
2023-02-08T02:21:04.079Z,100.00
2023-02-08T02:23:55.387Z,100.00
2023-02-08T02:26:38.958Z,100.00
2023-02-08T02:29:42.935Z,100.00
2023-02-08T02:32:26.703Z,100.00
2023-02-08T02:35:03.068Z,100.00
2023-02-08T02:37:42.292Z,100.00
2023-02-08T02:40:21.837Z,100.00
2023-02-08T02:43:14.440Z,100.00
2023-02-08T02:45:57.496Z,100.00
2023-02-08T02:48:55.416Z,99.61
2023-02-08T02:51:32.419Z,99.46
2023-02-08T02:54:14.624Z,98.98
2023-02-08T02:56:46.061Z,98.48
2023-02-08T02:59:15.756Z,98.26
2023-02-08T03:01:45.215Z,98.08
2023-02-08T03:04:15.194Z,98.39
2023-02-08T03:07:06.629Z,100.00
2023-02-08T03:09:49.307Z,100.00
2023-02-08T03:12:35.837Z,100.00
2023-02-08T03:15:30.204Z,100.00
2023-02-08T03:18:41.349Z,100.00
2023-02-08T03:21:42.922Z,100.00
2023-02-08T03:24:13.625Z,100.00
2023-02-08T03:26:51.471Z,100.00
2023-02-08T03:29:37.515Z,100.00
2023-02-08T03:32:12.317Z,100.00
2023-02-08T03:35:05.247Z,100.00
2023-02-08T03:37:44.752Z,100.00
2023-02-08T03:40:36.081Z,100.00
2023-02-08T03:43:37.807Z,100.00
2023-02-08T03:46:25.690Z,100.00
2023-02-08T03:48:59.848Z,100.00
2023-02-08T03:51:30.748Z,100.00
2023-02-08T03:54:01.972Z,99.25
2023-02-08T03:56:50.481Z,98.77
2023-02-08T03:59:23.761Z,98.39
2023-02-08T04:01:59.566Z,98.18
2023-02-08T04:04:31.925Z,96.49
2023-02-08T04:06:59.232Z,95.16
2023-02-08T04:09:27.385Z,95.68
2023-02-08T04:11:55.416Z,95.50
2023-02-08T04:14:23.527Z,95.01
2023-02-08T04:16:51.260Z,94.95
2023-02-08T04:19:18.839Z,95.49
2023-02-08T04:21:46.560Z,95.67
2023-02-08T04:24:13.792Z,95.78
2023-02-08T04:26:41.715Z,94.69
2023-02-08T04:29:09.243Z,94.32
2023-02-08T04:31:38.508Z,94.40
2023-02-08T04:34:11.639Z,94.02
2023-02-08T04:36:39.310Z,96.09
2023-02-08T04:39:06.797Z,95.36
2023-02-08T04:41:34.350Z,94.92
2023-02-08T04:44:01.987Z,94.84
2023-02-08T04:46:29.605Z,93.05
2023-02-08T04:48:58.834Z,93.14
2023-02-08T04:51:26.667Z,93.21
2023-02-08T04:53:54.385Z,93.28
2023-02-08T04:56:21.831Z,92.66
2023-02-08T04:58:50.241Z,92.29
2023-02-08T05:01:18.005Z,91.48
2023-02-08T05:03:45.678Z,91.13
2023-02-08T05:06:14.018Z,91.23
2023-02-08T05:08:42.364Z,91.52
2023-02-08T05:11:10.079Z,91.43
2023-02-08T05:13:38.200Z,91.63
2023-02-08T05:16:06.116Z,91.36
2023-02-08T05:18:33.810Z,90.65
2023-02-08T05:21:02.275Z,90.80
2023-02-08T05:23:30.117Z,89.88
2023-02-08T05:25:58.038Z,89.88
2023-02-08T05:28:26.457Z,89.86
2023-02-08T05:30:54.330Z,89.36
2023-02-08T05:33:22.754Z,88.57
2023-02-08T05:35:50.429Z,88.36
2023-02-08T05:38:18.171Z,88.15
2023-02-08T05:40:45.892Z,88.18
2023-02-08T05:43:13.786Z,89.82
2023-02-08T05:45:41.677Z,92.33
2023-02-08T05:48:09.675Z,95.67
2023-02-08T05:50:37.585Z,100.00
2023-02-08T05:53:05.390Z,100.00
2023-02-08T05:55:33.076Z,100.00
2023-02-08T05:58:00.709Z,100.00
2023-02-08T06:00:28.176Z,100.00
2023-02-08T06:02:58.024Z,100.00
2023-02-08T06:05:25.486Z,100.00
2023-02-08T06:07:52.787Z,100.00
2023-02-08T06:10:20.007Z,100.00
2023-02-08T06:12:47.834Z,100.00
2023-02-08T06:15:16.186Z,100.00
2023-02-08T06:17:43.719Z,100.00
2023-02-08T06:20:11.682Z,100.00
2023-02-08T06:22:39.310Z,100.00
2023-02-08T06:25:07.283Z,100.00
2023-02-08T06:27:35.199Z,100.00
2023-02-08T06:30:03.348Z,100.00
2023-02-08T06:32:31.255Z,100.00
2023-02-08T06:34:59.135Z,100.00
2023-02-08T06:37:26.986Z,100.00
2023-02-08T06:39:54.174Z,100.00
2023-02-08T06:42:22.319Z,100.00
2023-02-08T06:44:55.156Z,100.00
2023-02-08T06:47:24.561Z,100.00
2023-02-08T06:49:52.993Z,100.00
2023-02-08T06:52:21.506Z,100.00
2023-02-08T06:54:49.223Z,100.00
2023-02-08T06:57:17.431Z,100.00
2023-02-08T06:59:44.988Z,100.00
2023-02-08T07:02:20.072Z,100.00
2023-02-08T07:04:48.846Z,100.00
2023-02-08T07:07:18.053Z,98.19
2023-02-08T07:09:46.148Z,96.69
2023-02-08T07:12:13.726Z,95.32
2023-02-08T07:14:44.027Z,97.55
2023-02-08T07:17:12.543Z,100.00
2023-02-08T07:19:40.826Z,98.08
2023-02-08T07:22:11.472Z,93.86
2023-02-08T07:24:40.844Z,90.19
2023-02-08T07:27:10.299Z,88.44
2023-02-08T07:29:38.056Z,84.67
2023-02-08T07:32:07.579Z,82.30
2023-02-08T07:34:37.518Z,81.37
2023-02-08T07:37:04.878Z,84.33
2023-02-08T07:39:33.337Z,85.55
2023-02-08T07:42:01.655Z,83.51
2023-02-08T07:44:35.716Z,82.89
2023-02-08T07:47:03.630Z,77.28
2023-02-08T07:49:32.154Z,79.21
2023-02-08T07:52:03.120Z,92.47
2023-02-08T07:54:33.944Z,95.87
2023-02-08T07:57:03.521Z,83.79
2023-02-08T07:59:31.599Z,92.37
2023-02-08T08:01:59.217Z,95.07
2023-02-08T08:04:26.828Z,89.01
2023-02-08T08:06:56.243Z,86.55
2023-02-08T08:09:24.595Z,81.87
2023-02-08T08:11:52.053Z,74.13
2023-02-08T08:14:20.437Z,71.98
2023-02-08T08:16:47.987Z,69.39
2023-02-08T08:19:15.684Z,67.34
2023-02-08T08:21:45.163Z,59.56
2023-02-08T08:24:12.522Z,58.43
2023-02-08T08:26:40.103Z,50.38
2023-02-08T08:29:08.326Z,46.27
2023-02-08T08:31:37.005Z,49.98
2023-02-08T08:34:04.632Z,51.96
2023-02-08T08:36:33.104Z,49.43
2023-02-08T08:39:00.682Z,45.67
2023-02-08T08:41:29.043Z,46.00
2023-02-08T08:43:56.485Z,42.10
2023-02-08T08:46:24.155Z,43.11
2023-02-08T08:48:52.293Z,41.14
2023-02-08T08:51:20.360Z,37.99
2023-02-08T08:53:48.006Z,39.14
2023-02-08T08:56:15.449Z,41.17
2023-02-08T08:58:44.087Z,36.33
2023-02-08T09:01:14.290Z,33.26
2023-02-08T09:03:41.683Z,33.40
2023-02-08T09:06:09.267Z,37.80
2023-02-08T09:08:36.758Z,37.78
2023-02-08T09:11:10.063Z,36.24
2023-02-08T09:13:38.820Z,34.09
2023-02-08T09:16:10.317Z,30.29
2023-02-08T09:18:38.040Z,35.02
2023-02-08T09:21:15.986Z,30.69
2023-02-08T09:23:44.085Z,31.40
2023-02-08T09:26:13.690Z,34.39
2023-02-08T09:28:41.771Z,34.25
2023-02-08T09:31:10.840Z,31.65
2023-02-08T09:33:39.211Z,33.10
2023-02-08T09:36:07.435Z,31.92
2023-02-08T09:38:35.164Z,34.17
2023-02-08T09:41:30.711Z,33.72
2023-02-08T09:44:30.704Z,32.32
2023-02-08T09:47:15.412Z,33.51
2023-02-08T09:50:20.238Z,31.83
2023-02-08T09:53:01.282Z,33.07
2023-02-08T09:55:52.233Z,31.18
2023-02-08T09:58:29.728Z,31.29
2023-02-08T10:00:59.040Z,33.02
2023-02-08T10:03:42.919Z,32.75
2023-02-08T10:06:14.158Z,32.68
2023-02-08T10:08:43.151Z,31.37
2023-02-08T10:11:19.397Z,28.69
2023-02-08T10:13:58.609Z,30.46
2023-02-08T10:16:50.312Z,28.95
2023-02-08T10:19:37.913Z,29.82
2023-02-08T10:22:26.770Z,28.14
2023-02-08T10:25:00.793Z,26.60
2023-02-08T10:28:08.841Z,26.65
2023-02-08T10:30:52.880Z,27.94
2023-02-08T10:33:51.779Z,26.95
2023-02-08T10:36:22.406Z,27.33
2023-02-08T10:38:55.069Z,28.58
2023-02-08T10:41:29.359Z,29.21
2023-02-08T10:44:03.875Z,29.65
2023-02-08T10:46:42.173Z,28.96
2023-02-08T10:49:47.586Z,27.81
2023-02-08T10:52:15.343Z,27.11
2023-02-08T10:54:42.999Z,26.86
2023-02-08T10:57:22.568Z,26.93
2023-02-08T10:59:56.356Z,26.09
2023-02-08T11:02:29.543Z,25.15
2023-02-08T11:05:15.692Z,25.30
2023-02-08T11:07:44.532Z,25.33
2023-02-08T11:10:25.061Z,26.36
2023-02-08T11:13:16.432Z,25.78
2023-02-08T11:15:48.809Z,25.38
2023-02-08T11:18:36.450Z,25.39
2023-02-08T11:21:12.991Z,24.83
2023-02-08T11:23:43.468Z,24.79
2023-02-08T11:26:19.701Z,24.51
2023-02-08T11:29:02.785Z,24.42
2023-02-08T11:31:30.851Z,24.24
2023-02-08T11:34:05.851Z,23.04
2023-02-08T11:36:36.457Z,24.47
2023-02-08T11:39:18.660Z,23.78
2023-02-08T11:41:50.076Z,24.10
2023-02-08T11:44:29.501Z,24.56
2023-02-08T11:47:02.021Z,25.80
2023-02-08T11:49:44.952Z,25.94
2023-02-08T11:52:34.060Z,25.50
2023-02-08T11:55:21.021Z,25.82
2023-02-08T11:57:58.519Z,27.00
2023-02-08T12:00:51.200Z,27.40
2023-02-08T12:03:28.732Z,27.85
2023-02-08T12:06:21.959Z,27.22
2023-02-08T12:09:02.859Z,26.94
2023-02-08T12:11:44.410Z,26.15
2023-02-08T12:14:32.967Z,26.16
2023-02-08T12:17:28.783Z,25.94
2023-02-08T12:20:34.274Z,25.29
2023-02-08T12:23:17.254Z,25.00
2023-02-08T12:25:57.085Z,23.57
2023-02-08T12:28:40.772Z,24.04
2023-02-08T12:31:34.004Z,24.78
2023-02-08T12:34:29.280Z,26.49
2023-02-08T12:37:32.678Z,27.46
2023-02-08T12:40:19.104Z,28.73
2023-02-08T12:43:17.907Z,31.36
2023-02-08T12:45:59.020Z,32.57
2023-02-08T12:48:48.225Z,33.93
2023-02-08T12:51:27.050Z,36.31
2023-02-08T12:54:01.717Z,36.82
2023-02-08T12:56:36.881Z,37.28
2023-02-08T12:59:13.838Z,38.99
2023-02-08T13:01:46.231Z,39.96
2023-02-08T13:04:47.275Z,40.82
2023-02-08T13:07:22.671Z,41.85
2023-02-08T13:10:12.216Z,41.88
2023-02-08T13:12:44.871Z,45.13
2023-02-08T13:15:31.249Z,45.30
2023-02-08T13:18:21.477Z,46.58
2023-02-08T13:20:58.088Z,46.32
2023-02-08T13:23:51.593Z,48.77
2023-02-08T13:26:27.253Z,47.54
2023-02-08T13:28:59.446Z,49.69
2023-02-08T13:31:34.460Z,50.34
2023-02-08T13:34:25.844Z,49.88
2023-02-08T13:37:01.094Z,49.24
2023-02-08T13:39:40.173Z,51.34
2023-02-08T13:42:19.536Z,51.30
2023-02-08T13:44:53.306Z,50.53
2023-02-08T13:47:49.101Z,51.38
2023-02-08T13:50:35.286Z,52.64
2023-02-08T13:53:06.897Z,51.91
2023-02-08T13:56:00.794Z,51.49
2023-02-08T13:58:40.913Z,53.35
2023-02-08T14:01:22.673Z,53.32
2023-02-08T14:04:10.682Z,52.96
2023-02-08T14:06:48.057Z,52.93
2023-02-08T14:09:16.009Z,53.05
2023-02-08T14:11:53.793Z,52.97
2023-02-08T14:14:29.917Z,53.10
2023-02-08T14:17:19.537Z,54.23
2023-02-08T14:19:58.517Z,53.79
2023-02-08T14:22:35.794Z,54.26
2023-02-08T14:25:18.506Z,54.68
2023-02-08T14:27:54.332Z,54.91
2023-02-08T14:30:50.705Z,56.31
2023-02-08T14:33:28.464Z,56.96
2023-02-08T14:36:03.646Z,57.00
2023-02-08T14:38:48.588Z,57.43
2023-02-08T14:41:55.060Z,58.08
2023-02-08T14:44:46.825Z,57.71
2023-02-08T14:47:27.297Z,58.42
2023-02-08T14:50:18.210Z,57.47
2023-02-08T14:53:03.422Z,56.38
2023-02-08T14:55:37.591Z,56.38
2023-02-08T14:58:13.642Z,57.23
2023-02-08T15:00:43.493Z,58.43
2023-02-08T15:03:18.278Z,58.60
2023-02-08T15:06:12.180Z,59.02
2023-02-08T15:08:40.271Z,58.75
2023-02-08T15:11:25.641Z,58.73
2023-02-08T15:13:56.321Z,59.23
2023-02-08T15:16:34.657Z,59.48
2023-02-08T15:19:07.898Z,59.71
2023-02-08T15:21:37.785Z,60.95
2023-02-08T15:24:18.196Z,61.13
2023-02-08T15:26:48.543Z,61.81
2023-02-08T15:29:32.668Z,61.82
2023-02-08T15:32:03.562Z,62.39
2023-02-08T15:34:31.002Z,63.59
2023-02-08T15:36:58.595Z,62.54
2023-02-08T15:39:36.347Z,65.01
2023-02-08T15:42:03.663Z,66.44
2023-02-08T15:44:36.787Z,67.83
2023-02-08T15:47:06.512Z,66.39
2023-02-08T15:49:38.232Z,68.61
2023-02-08T15:52:06.857Z,67.44
2023-02-08T15:54:34.529Z,66.70
2023-02-08T15:57:09.887Z,67.46
2023-02-08T15:59:40.300Z,68.03
2023-02-08T16:02:35.083Z,67.23
2023-02-08T16:05:11.925Z,67.75
2023-02-08T16:07:45.118Z,68.55
2023-02-08T16:10:44.981Z,68.58
2023-02-08T16:13:48.040Z,68.87
2023-02-08T16:16:26.922Z,68.64
2023-02-08T16:19:21.770Z,68.28
2023-02-08T16:21:49.724Z,68.32
2023-02-08T16:24:16.760Z,68.73
2023-02-08T16:26:54.672Z,68.57
2023-02-08T16:29:39.809Z,70.01
2023-02-08T16:32:28.967Z,70.10
2023-02-08T16:34:56.672Z,68.69
2023-02-08T16:37:29.721Z,69.78
2023-02-08T16:40:05.279Z,68.72
2023-02-08T16:42:34.274Z,71.02
2023-02-08T16:45:03.867Z,71.01
2023-02-08T16:47:54.125Z,71.77
2023-02-08T16:50:27.284Z,70.77
2023-02-08T16:53:00.759Z,70.42
2023-02-08T16:55:32.005Z,70.60
2023-02-08T16:58:00.418Z,70.49
2023-02-08T17:00:32.809Z,70.82
2023-02-08T17:03:01.378Z,70.91
2023-02-08T17:05:36.518Z,71.71
2023-02-08T17:08:08.081Z,73.92
2023-02-08T17:10:35.594Z,73.69
2023-02-08T17:13:19.445Z,73.22
2023-02-08T17:15:50.505Z,73.17
2023-02-08T17:18:17.911Z,73.12
2023-02-08T17:20:45.743Z,72.91
2023-02-08T17:23:15.881Z,73.15
2023-02-08T17:25:44.165Z,73.99
2023-02-08T17:28:18.703Z,74.34
2023-02-08T17:30:47.382Z,74.41
2023-02-08T17:33:21.097Z,74.14
2023-02-08T17:35:51.037Z,74.10
2023-02-08T17:38:20.052Z,73.96
2023-02-08T17:40:48.373Z,74.10
2023-02-08T17:43:16.148Z,74.88
2023-02-08T17:45:44.806Z,73.93
2023-02-08T17:48:14.283Z,73.31
2023-02-08T17:50:48.556Z,74.33
2023-02-08T17:53:17.320Z,75.02
2023-02-08T17:55:45.758Z,75.56
2023-02-08T17:58:13.646Z,75.42
2023-02-08T18:00:41.574Z,74.67
2023-02-08T18:03:09.499Z,74.84
2023-02-08T18:05:37.805Z,74.73
2023-02-08T18:08:05.635Z,75.23
2023-02-08T18:10:33.215Z,74.76
2023-02-08T18:13:00.937Z,76.04
2023-02-08T18:15:28.621Z,76.48
2023-02-08T18:17:56.014Z,75.38
2023-02-08T18:20:23.751Z,75.94
2023-02-08T18:22:51.176Z,75.25
2023-02-08T18:25:19.297Z,74.59
2023-02-08T18:27:46.622Z,74.48
2023-02-08T18:30:15.066Z,75.34
2023-02-08T18:32:45.675Z,75.10
2023-02-08T18:35:12.953Z,74.99
2023-02-08T18:37:40.574Z,75.52
2023-02-08T18:40:09.169Z,75.76
2023-02-08T18:42:36.584Z,75.45
2023-02-08T18:45:05.772Z,75.88
2023-02-08T18:47:37.164Z,76.33
2023-02-08T18:50:06.146Z,77.19
2023-02-08T18:52:34.619Z,78.28
2023-02-08T18:55:02.708Z,77.46
2023-02-08T18:57:30.537Z,77.00
2023-02-08T18:59:58.042Z,77.27
2023-02-08T19:02:26.582Z,78.92
2023-02-08T19:04:54.507Z,78.18
2023-02-08T19:07:21.832Z,77.41
2023-02-08T19:09:49.871Z,77.85
2023-02-08T19:12:19.392Z,78.29
2023-02-08T19:14:50.604Z,78.51
2023-02-08T19:17:18.400Z,76.52
2023-02-08T19:19:46.974Z,76.16
2023-02-08T19:22:14.586Z,76.28
2023-02-08T19:24:44.990Z,76.66
2023-02-08T19:27:12.596Z,77.32
2023-02-08T19:29:39.824Z,78.50
2023-02-08T19:32:08.520Z,77.99
2023-02-08T19:34:36.017Z,78.43
2023-02-08T19:37:03.687Z,77.16
2023-02-08T19:39:31.597Z,77.42
2023-02-08T19:41:59.179Z,77.49
2023-02-08T19:44:29.859Z,81.24
2023-02-08T19:46:58.054Z,80.33
2023-02-08T19:49:29.039Z,80.27
2023-02-08T19:51:57.896Z,80.25
2023-02-08T19:54:26.043Z,82.17
2023-02-08T19:56:55.004Z,81.34
2023-02-08T19:59:25.946Z,80.40
2023-02-08T20:01:55.604Z,79.65
2023-02-08T20:04:27.826Z,79.23
2023-02-08T20:06:55.480Z,79.04
2023-02-08T20:09:25.361Z,79.19
2023-02-08T20:12:00.130Z,78.74
2023-02-08T20:14:31.679Z,79.10
2023-02-08T20:16:59.927Z,78.95
2023-02-08T20:19:28.646Z,78.48
2023-02-08T20:21:56.692Z,77.56
2023-02-08T20:24:23.977Z,77.56
2023-02-08T20:26:51.378Z,78.44
2023-02-08T20:29:20.225Z,78.57
2023-02-08T20:31:49.677Z,78.77
2023-02-08T20:34:19.033Z,79.01
2023-02-08T20:37:08.254Z,79.27
2023-02-08T20:39:37.302Z,78.84
2023-02-08T20:42:05.240Z,79.00
2023-02-08T20:44:33.641Z,78.99
2023-02-08T20:47:01.529Z,78.80
2023-02-08T20:49:30.085Z,78.73
2023-02-08T20:51:57.717Z,78.90
2023-02-08T20:54:25.427Z,78.55
2023-02-08T20:56:54.228Z,78.38
2023-02-08T20:59:22.449Z,78.07
2023-02-08T21:01:51.842Z,77.87
2023-02-08T21:04:24.305Z,77.19
2023-02-08T21:06:52.048Z,78.97
2023-02-08T21:09:20.696Z,81.54
2023-02-08T21:11:48.351Z,80.40
2023-02-08T21:14:20.872Z,79.78
2023-02-08T21:16:52.465Z,79.46
2023-02-08T21:19:21.050Z,79.00
2023-02-08T21:22:03.056Z,78.81
2023-02-08T21:24:31.163Z,78.60
2023-02-08T21:26:58.482Z,79.08
2023-02-08T21:29:25.812Z,79.05
2023-02-08T21:31:54.777Z,79.16
2023-02-08T21:34:22.279Z,78.90
2023-02-08T21:36:49.966Z,78.87
2023-02-08T21:39:17.475Z,78.80
2023-02-08T21:41:45.446Z,78.82
2023-02-08T21:44:12.933Z,78.16
2023-02-08T21:46:40.164Z,77.97
2023-02-08T21:49:26.208Z,78.01
2023-02-08T21:52:12.297Z,77.93
2023-02-08T21:54:42.744Z,77.71
2023-02-08T21:57:19.318Z,77.68
2023-02-08T21:59:48.795Z,78.42
2023-02-08T22:02:28.089Z,78.85
2023-02-08T22:05:16.434Z,78.21
2023-02-08T22:07:54.277Z,77.33
2023-02-08T22:10:24.672Z,77.42
2023-02-08T22:12:56.007Z,77.51
2023-02-08T22:15:25.730Z,77.41
2023-02-08T22:17:58.962Z,77.87
2023-02-08T22:20:26.373Z,78.29
2023-02-08T22:22:56.938Z,78.41
2023-02-08T22:25:24.465Z,78.53
2023-02-08T22:27:52.725Z,78.63
2023-02-08T22:30:22.833Z,78.13
2023-02-08T22:32:52.109Z,79.34
2023-02-08T22:35:19.628Z,80.07
2023-02-08T22:37:47.262Z,82.32
2023-02-08T22:40:14.409Z,84.58
2023-02-08T22:42:42.735Z,83.93
2023-02-08T22:45:10.831Z,82.69
2023-02-08T22:47:38.574Z,82.10
2023-02-08T22:50:07.783Z,81.60
2023-02-08T22:52:35.430Z,81.32
2023-02-08T22:55:04.305Z,81.23
2023-02-08T22:57:33.235Z,80.54
2023-02-08T23:00:00.849Z,79.85
2023-02-08T23:02:28.361Z,78.93
2023-02-08T23:04:55.992Z,79.17
2023-02-08T23:07:23.541Z,79.20
2023-02-08T23:09:50.574Z,79.71
2023-02-08T23:12:19.205Z,79.04
2023-02-08T23:14:48.745Z,79.77
2023-02-08T23:17:16.579Z,79.80
2023-02-08T23:19:44.071Z,79.66
2023-02-08T23:22:11.561Z,80.11
2023-02-08T23:24:39.180Z,79.70
2023-02-08T23:27:06.293Z,79.43
2023-02-08T23:29:35.405Z,79.13
2023-02-08T23:32:03.758Z,79.30
2023-02-08T23:34:31.193Z,78.50
2023-02-08T23:36:58.615Z,79.02
2023-02-08T23:39:25.814Z,79.74
2023-02-08T23:41:56.523Z,79.26
2023-02-08T23:44:25.441Z,79.18
2023-02-08T23:46:53.744Z,78.57
2023-02-08T23:49:21.078Z,78.50
2023-02-08T23:51:48.332Z,78.52
2023-02-08T23:54:15.502Z,78.66
2023-02-08T23:56:44.453Z,78.00
2023-02-08T23:59:12.184Z,78.30
